Latest Weather Observations for Ulladulla

IDN60901

Issued at 11:55 pm EDT Thursday 30 October 2014 (issued every 10 minutes, with the page automatically refreshed every 10 minutes)

About weather observations | Map of Canberra area stations | Latest observations for Canberra area | Other Formats
Station Details ID: 069138 Name: ULLADULLA AWS Lat: -35.36 Lon: 150.48 Height: 35.7 m
Data from the previous 72 hours. | See also: Recent months at Ulladulla
Date/Time
EDT
Tmp

°C
App
Tmp
°C
Dew
Point
°C
Rel
Hum
%
Delta-T

°C
Wind Press
QNH
hPa
Press
MSL
hPa
Rain
since
9 am
mm
Dir
 
Spd
km/h
Gust
km/h
Spd
kts
Gust
kts
30/11:30pm 16.6 17.2 15.8 95 0.5 SSW 7 11 4 6 1015.0 1015.0 0.0
30/11:00pm 16.7 16.8 15.6 93 0.6 SSW 9 15 5 8 1015.0 1015.0 0.0
30/10:30pm 16.8 17.1 15.0 89 1.0 SSW 7 9 4 5 1014.8 1014.8 0.0
30/10:00pm 17.3 17.6 15.1 87 1.3 SSW 7 9 4 5 1014.7 1014.7 0.0
30/09:30pm 16.9 15.9 12.2 74 2.6 SSW 9 13 5 7 1014.4 1014.4 0.0
30/09:00pm 18.3 17.8 10.7 61 4.1 N 4 6 2 3 1013.9 1013.9 0.0
30/08:30pm 19.5 18.3 9.7 53 5.2 NNE 6 11 3 6 1013.3 1013.3 0.0
30/08:00pm 19.7 18.9 11.7 60 4.4 NNE 7 11 4 6 1012.9 1012.9 0.0
30/07:30pm 19.8 18.7 12.1 61 4.3 NNE 9 15 5 8 1012.4 1012.3 0.0
30/07:00pm 19.8 18.3 13.0 65 3.9 NNE 13 22 7 12 1011.9 1011.8 0.0
30/06:30pm 19.8 19.0 14.0 69 3.3 NNE 11 19 6 10 1011.6 1011.5 0.0
30/06:00pm 19.7 20.6 16.2 80 2.1 N 6 11 3 6 1011.6 1011.5 0.0
30/05:30pm 19.8 20.6 16.4 81 2.0 N 7 11 4 6 1011.4 1011.3 0.0
30/05:00pm 19.7 19.9 15.8 78 2.3 N 9 13 5 7 1011.2 1011.1 0.0
30/04:30pm 20.0 20.8 16.4 80 2.2 N 7 13 4 7 1011.3 1011.2 0.0
30/04:00pm 19.6 19.5 16.1 80 2.1 NNE 11 17 6 9 1011.2 1011.1 0.0
30/03:30pm 19.5 19.4 16.0 80 2.1 NNE 11 15 6 8 1011.3 1011.2 0.0
30/03:00pm 19.3 19.4 15.4 78 2.3 N 9 13 5 7 1011.7 1011.6 0.0
30/02:30pm 19.6 20.2 15.9 79 2.2 N 7 13 4 7 1011.9 1011.8 0.0
30/02:00pm 19.1 19.5 15.4 79 2.2 N 7 13 4 7 1012.3 1012.2 0.0
30/01:30pm 20.0 20.8 15.8 77 2.5 ENE 6 11 3 6 1012.6 1012.5 0.0
30/01:00pm 19.3 19.3 14.3 73 2.9 SSE 7 11 4 6 1013.0 1013.0 0.0
30/12:30pm 19.0 18.7 14.5 75 2.6 SSE 9 11 5 6 1013.5 1013.5 0.0
30/12:00pm 19.0 18.4 14.5 75 2.6 SSE 11 15 6 8 1013.7 1013.7 0.0
30/11:30am 19.0 18.6 15.1 78 2.3 SSE 11 15 6 8 1013.9 1013.9 0.0
30/11:00am 17.6 17.5 13.9 79 2.1 SSE 7 11 4 6 1014.3 1014.3 0.0
30/10:30am 17.7 17.2 13.8 78 2.2 SSE 9 11 5 6 1014.2 1014.2 0.0
30/10:00am 17.8 17.7 13.9 78 2.2 SSE 7 11 4 6 1014.4 1014.4 0.0
30/09:30am 17.8 17.8 14.1 79 2.1 SSE 7 11 4 6 1014.4 1014.4 0.0
30/09:00am 17.6 18.1 14.9 84 1.6 S 6 9 3 5 1014.6 1014.6 0.0
30/08:30am 16.9 17.0 14.5 86 1.4 S 7 9 4 5 1014.6 1014.6 0.0
30/08:00am 15.6 16.3 14.6 94 0.6 SW 4 6 2 3 1014.5 1014.5 0.0
30/07:30am 14.3 14.4 13.8 97 0.3 S 6 9 3 5 1014.4 1014.4 0.0
30/07:00am 14.4 15.6 13.9 97 0.3 CALM 0 0 0 0 1014.2 1014.2 0.0
30/06:30am 13.4 13.5 12.6 95 0.4 WNW 4 6 2 3 1014.0 1014.0 0.0
30/06:00am 13.2 13.9 12.3 94 0.5 WNW 0 0 0 0 1013.7 1013.7 0.0
30/05:30am 13.4 14.2 12.6 95 0.4 CALM 0 0 0 0 1013.6 1013.6 0.0
30/05:00am 13.5 13.8 12.2 92 0.7 WNW 2 4 1 2 1013.6 1013.6 0.0
30/04:30am 13.6 14.2 11.8 89 1.0 CALM 0 0 0 0 1013.7 1013.7 0.0
30/04:00am 13.7 14.3 11.8 88 1.0 CALM 0 0 0 0 1013.7 1013.7 0.0
30/03:30am 14.0 14.6 11.9 87 1.1 WNW 0 4 0 2 1013.9 1013.9 0.0
30/03:00am 14.5 15.2 12.2 86 1.2 WNW 0 0 0 0 1014.2 1014.2 0.0
30/02:30am 15.4 16.3 12.9 85 1.4 CALM 0 0 0 0 1014.4 1014.4 0.0
30/02:00am 16.1 16.4 13.4 84 1.5 WNW 4 7 2 4 1014.8 1014.8 0.0
30/01:30am 16.8 17.7 13.9 83 1.6 NW 2 4 1 2 1015.1 1015.1 0.0
30/01:00am 17.1 18.1 14.2 83 1.7 NNW 2 4 1 2 1015.4 1015.4 0.0
30/12:30am 17.2 17.8 14.3 83 1.7 NW 4 6 2 3 1015.7 1015.7 0.0
30/12:00am 17.3 17.5 14.2 82 1.8 NNW 6 9 3 5 1015.9 1015.9 0.0
 
Date/Time
EDT
Tmp

°C
App
Tmp
°C
Dew
Point
°C
Rel
Hum
%
Delta-T

°C
Wind Press
QNH
hPa
Press
MSL
hPa
Rain
since
9 am
mm
Dir
 
Spd
km/h
Gust
km/h
Spd
kts
Gust
kts
29/11:30pm 17.4 17.6 14.3 82 1.8 NNW 6 7 3 4 1016.0 1016.0 0.0
29/11:00pm 17.7 17.5 14.6 82 1.8 N 9 11 5 6 1016.1 1016.1 0.0
29/10:30pm 17.7 18.2 15.0 84 1.6 NNW 6 11 3 6 1016.2 1016.2 0.0
29/10:00pm 17.6 15.8 14.5 82 1.8 NE 17 20 9 11 1016.2 1016.2 0.0
29/09:30pm 17.6 16.1 14.3 81 1.9 NE 15 24 8 13 1016.4 1016.4 0.0
29/09:00pm 17.6 15.3 14.1 80 2.0 NE 19 26 10 14 1016.4 1016.4 0.0
29/08:30pm 17.4 15.5 14.1 81 1.9 NNE 17 24 9 13 1016.2 1016.2 0.0
29/08:00pm 17.4 15.3 13.7 79 2.1 NNE 17 26 9 14 1016.1 1016.1 0.0
29/07:30pm 17.4 14.9 13.5 78 2.2 NNE 19 26 10 14 1015.9 1015.9 0.0
29/07:00pm 17.2 15.4 13.3 78 2.2 NNE 15 22 8 12 1015.7 1015.7 0.0
29/06:30pm 17.2 14.9 13.1 77 2.3 NNE 17 28 9 15 1015.5 1015.5 0.0
29/06:00pm 17.1 14.7 12.8 76 2.4 NNE 17 26 9 14 1015.5 1015.5 0.0
29/05:30pm 17.2 15.3 12.9 76 2.4 NE 15 22 8 12 1015.3 1015.3 0.0
29/05:00pm 17.3 15.3 12.8 75 2.5 NE 15 24 8 13 1015.3 1015.3 0.0
29/04:30pm 17.3 15.6 12.6 74 2.6 NE 13 24 7 13 1015.5 1015.5 0.0
29/04:00pm 17.4 15.7 12.5 73 2.7 NE 13 20 7 11 1015.6 1015.6 0.0
29/03:30pm 17.9 16.2 12.6 71 3.0 ENE 13 19 7 10 1015.7 1015.7 0.0
29/03:00pm 18.2 16.5 12.6 70 3.1 ENE 13 22 7 12 1016.0 1016.0 0.0
29/02:30pm 18.4 16.7 12.6 69 3.2 ENE 13 19 7 10 1016.2 1016.2 0.0
29/02:00pm 18.5 17.2 12.5 68 3.3 ENE 11 19 6 10 1016.4 1016.4 0.0
29/01:30pm 19.1 17.9 12.8 67 3.5 ENE 11 19 6 10 1016.7 1016.7 0.0
29/11:00am 18.7 17.7 12.2 66 3.6 E 9 17 5 9 1017.8 1017.8 0.0
29/10:30am 18.4 17.0 12.2 67 3.4 SE 11 15 6 8 1017.8 1017.8 0.0
29/10:00am 17.9 16.7 11.7 67 3.4 E 9 13 5 7 1017.8 1017.8 0.0
29/09:30am 18.0 17.3 12.0 68 3.3 SSE 7 11 4 6 1017.7 1017.7 0.0
29/09:00am 18.0 17.5 12.2 69 3.2 SSE 6 7 3 4 1017.6 1017.6 0.2
29/08:30am 17.4 16.9 12.5 73 2.7 S 7 7 4 4 1017.5 1017.5 0.2
29/08:00am 16.4 16.1 12.8 79 2.0 SSE 6 9 3 5 1017.2 1017.2 0.2
29/07:30am 16.2 16.8 13.1 82 1.7 SE 2 6 1 3 1017.0 1017.0 0.2
29/07:00am 15.7 15.4 12.6 82 1.7 SSW 6 9 3 5 1016.7 1016.7 0.2
29/06:30am 15.9 15.6 12.8 82 1.7 SE 6 9 3 5 1016.2 1016.2 0.2
29/06:00am 16.1 16.3 13.0 82 1.7 SE 4 7 2 4 1015.7 1015.7 0.2
29/05:30am 16.4 16.6 12.9 80 1.9 ESE 4 11 2 6 1015.1 1015.1 0.0
29/05:00am 16.4 16.0 12.9 80 1.9 ESE 7 13 4 7 1014.6 1014.6 0.0
29/04:30am 16.4 15.6 12.9 80 1.9 SE 9 15 5 8 1014.4 1014.4 0.0
29/04:00am 15.8 13.8 7.3 57 4.2 SW 7 13 4 7 1014.0 1014.0 0.0
29/03:30am 15.6 13.6 7.1 57 4.2 W 7 15 4 8 1013.6 1013.6 0.0
29/03:00am 16.1 13.7 7.1 55 4.5 W 9 15 5 8 1013.2 1013.2 0.0
29/02:30am 16.4 13.9 6.5 52 4.9 W 9 15 5 8 1013.0 1013.0 0.0
29/02:00am 16.8 14.3 6.6 51 5.0 WNW 9 19 5 10 1013.0 1013.0 0.0
29/01:30am 16.9 14.4 6.4 50 5.2 WNW 9 15 5 8 1013.0 1013.0 0.0
29/01:00am 16.6 14.5 8.1 57 4.3 NW 9 13 5 7 1013.3 1013.3 0.0
29/12:30am 15.8 14.5 10.1 69 3.0 NW 7 9 4 5 1013.4 1013.4 0.0
29/12:00am 15.7 15.3 12.3 80 1.9 NNW 6 7 3 4 1013.4 1013.4 0.0
 
Date/Time
EDT
Tmp

°C
App
Tmp
°C
Dew
Point
°C
Rel
Hum
%
Delta-T

°C
Wind Press
QNH
hPa
Press
MSL
hPa
Rain
since
9 am
mm
Dir
 
Spd
km/h
Gust
km/h
Spd
kts
Gust
kts
28/11:30pm 15.6 15.5 12.2 80 1.9 NNE 4 6 2 3 1013.3 1013.3 0.0
28/11:00pm 16.3 16.6 12.3 77 2.2 E 2 7 1 4 1013.2 1013.2 0.0
28/10:30pm 16.9 17.1 12.0 73 2.7 SSW 2 4 1 2 1012.9 1012.9 0.0
28/10:00pm 17.6 16.9 10.0 61 4.0 S 4 6 2 3 1012.6 1012.5 0.0
28/09:30pm 18.3 16.6 5.8 44 6.1 W 4 7 2 4 1012.4 1012.3 0.0
28/09:00pm 19.3 17.0 5.7 41 6.7 WNW 7 15 4 8 1012.0 1011.9 0.0
28/08:30pm 20.2 16.7 5.4 38 7.3 WNW 13 24 7 13 1011.1 1011.0 0.0
28/08:00pm 20.7 17.1 5.1 36 7.7 W 13 22 7 12 1010.6 1010.5 0.0
28/07:30pm 21.3 16.9 4.8 34 8.1 W 17 32 9 17 1009.6 1009.5 0.0
28/07:00pm 22.0 16.6 4.6 32 8.6 WNW 22 35 12 19 1008.8 1008.7 0.0
28/06:30pm 22.6 18.2 4.6 31 8.9 W 17 41 9 22 1008.2 1008.1 0.0
28/06:00pm 23.1 19.1 5.1 31 9.0 WNW 15 28 8 15 1007.7 1007.6 0.0
28/05:30pm 23.8 18.4 4.7 29 9.5 WNW 22 41 12 22 1007.0 1006.9 0.0
28/05:00pm 24.4 19.1 5.2 29 9.7 WNW 22 46 12 25 1006.4 1006.3 0.0
28/04:30pm 24.4 18.6 4.2 27 10.0 NW 24 39 13 21 1006.3 1006.2 0.0
28/04:17pm 24.3 17.6 3.6 26 10.1 WNW 28 50 15 27 1006.0 1005.9 0.0
28/04:00pm 24.9 20.1 4.6 27 10.2 WNW 19 43 10 23 1006.1 1006.0 0.0
28/03:39pm 24.4 17.8 4.2 27 10.0 WNW 28 50 15 27 1006.3 1006.2 0.0
28/03:30pm 24.8 19.2 5.6 29 9.8 NW 24 46 13 25 1006.2 1006.1 0.0
28/03:10pm 24.3 17.8 4.6 28 9.8 NW 28 50 15 27 1006.4 1006.3 0.0
28/03:00pm 24.6 19.4 5.4 29 9.8 NW 22 39 12 21 1006.8 1006.7 0.0
28/02:30pm 24.0 18.2 4.4 28 9.7 NW 24 43 13 23 1006.9 1006.8 0.0
28/02:00pm 24.1 19.1 6.4 32 9.1 NW 22 37 12 20 1007.5 1007.4 0.0
28/01:30pm 24.2 20.3 5.5 30 9.5 WNW 15 24 8 13 1008.0 1007.9 0.0
28/01:00pm 23.1 18.0 4.1 29 9.3 NW 20 35 11 19 1008.3 1008.2 0.0
28/12:30pm 22.5 17.7 4.5 31 8.9 NW 19 32 10 17 1008.5 1008.4 0.0
28/12:00pm 21.4 15.7 2.6 29 8.9 WNW 22 35 12 19 1008.9 1008.8 0.0
28/11:30am 20.3 16.7 3.1 32 8.1 WNW 11 26 6 14 1009.4 1009.3 0.0
28/11:00am 20.3 16.9 3.9 34 7.9 W 11 26 6 14 1010.0 1009.9 0.0
28/10:30am 19.6 16.4 4.9 38 7.1 W 11 24 6 13 1010.4 1010.3 0.0
28/10:00am 19.4 16.1 4.4 37 7.2 W 11 19 6 10 1010.1 1010.0 0.0
28/09:30am 19.1 15.1 4.8 39 6.9 NW 15 24 8 13 1009.9 1009.8 0.0
28/09:00am 18.9 15.2 4.3 38 7.0 WNW 13 33 7 18 1009.8 1009.7 0.0
28/08:30am 18.4 14.9 5.6 43 6.3 WNW 13 22 7 12 1010.0 1009.9 0.0
28/08:00am 16.0 14.3 8.5 61 3.8 N 7 11 4 6 1010.0 1009.9 0.0
28/07:30am 15.1 13.7 8.8 66 3.2 NW 6 11 3 6 1010.1 1010.0 0.0
28/07:00am 13.3 12.2 9.9 80 1.8 W 6 9 3 5 1009.9 1009.8 0.0
28/06:30am 11.9 10.5 8.9 82 1.5 W 6 11 3 6 1010.0 1009.9 0.0
28/06:00am 11.8 10.2 8.8 82 1.5 NW 7 9 4 5 1009.8 1009.7 0.0
28/05:30am 11.7 11.1 8.9 83 1.4 N 2 6 1 3 1009.3 1009.2 0.0
28/05:00am 13.1 11.7 11.0 87 1.1 N 9 11 5 6 1009.1 1009.0 0.0
28/04:30am 14.2 13.6 12.2 88 1.1 N 7 13 4 7 1009.2 1009.1 0.0
28/04:00am 14.2 13.2 12.2 88 1.1 N 9 13 5 7 1009.5 1009.4 0.0
28/03:30am 14.4 13.8 12.3 87 1.1 N 7 13 4 7 1009.6 1009.5 0.0
28/03:00am 15.1 13.6 13.1 88 1.1 N 13 17 7 9 1009.8 1009.7 0.0
28/02:30am 15.1 15.0 13.3 89 1.0 N 6 11 3 6 1010.1 1010.0 0.0
28/02:00am 14.6 14.2 13.0 90 0.9 N 7 15 4 8 1010.3 1010.2 0.0
28/01:30am 13.9 13.5 12.3 90 0.9 NW 6 9 3 5 1010.5 1010.4 0.0
28/01:00am 13.8 13.3 12.2 90 0.9 N 6 7 3 4 1010.5 1010.4 0.0
28/12:30am 13.9 13.4 12.1 89 1.0 NNW 6 9 3 5 1010.5 1010.4 0.0
28/12:00am 14.2 13.6 12.4 89 1.0 NNW 7 11 4 6 1010.3 1010.2 0.0

Latest Capital City Observations: Canberra | Sydney | Melbourne | Brisbane | Adelaide | Perth | Hobart | Darwin

Other Formats:

Comma delimited format used in spreadsheet applications
http://www.bom.gov.au/fwo/IDN60903/IDN60903.94938.axf

JavaScript Object Notation format (JSON) in row-major order
http://www.bom.gov.au/fwo/IDN60903/IDN60903.94938.json